This is the latest recevied weather packets stored in our database for station/object KD8UTJ. If no packets are shown the sender has not sent any weather packets the latest 1 day(s).
| Time | Temp. | Humidity | Pressure | Rain* | Wind** | Luminosity | Snow |
|---|---|---|---|---|---|---|---|
| 1778028661 | 23.89° C | 70% | 1017.5 hPa | 0 mm | 0 m/s | 0 W/m² | - |
| 1778028358 | 23.89° C | 70% | 1018 hPa | 0 mm | 0.89 m/s, 70° | 0 W/m² | - |
| 1778028054 | 23.89° C | 70% | 1017.8 hPa | 0 mm | 0.89 m/s, 139° | 0 W/m² | - |
| 1778027751 | 23.89° C | 70% | 1017.8 hPa | 0 mm | 0.89 m/s, 129° | 0 W/m² | - |
| 1778027447 | 23.89° C | 70% | 1017.7 hPa | 0 mm | 2.68 m/s, 89° | 0 W/m² | - |
| 1778027143 | 23.89° C | 70% | 1017.7 hPa | 0 mm | 1.79 m/s, 121° | 0 W/m² | - |
| 1778026839 | 23.89° C | 70% | 1017.6 hPa | 0 mm | 1.79 m/s, 89° | 0 W/m² | - |
| 1778026536 | 23.89° C | 69% | 1017.7 hPa | 0 mm | 0.89 m/s, 68° | 0 W/m² | - |
| 1778026233 | 23.89° C | 68% | 1017.6 hPa | 0 mm | 1.34 m/s, 67° | 0 W/m² | - |
| 1778025930 | 23.89° C | 67% | 1017.7 hPa | 0 mm | 0.89 m/s, 87° | 1 W/m² | - |
| 1778025628 | 23.89° C | 66% | 1017.7 hPa | 0 mm | 0.45 m/s, 159° | 2 W/m² | - |
| 1778025326 | 24.44° C | 64% | 1017.6 hPa | 0 mm | 0.45 m/s, 125° | 3 W/m² | - |
| 1778025022 | 24.44° C | 64% | 1017.7 hPa | 0 mm | 1.34 m/s, 86° | 6 W/m² | - |
| 1778024719 | 24.44° C | 65% | 1017.4 hPa | 0 mm | 1.34 m/s, 102° | 9 W/m² | - |
| 1778024416 | 24.44° C | 65% | 1017.4 hPa | 0 mm | 0.45 m/s, 132° | 13 W/m² | - |
| 1778024114 | 24.44° C | 65% | 1017.7 hPa | 0 mm | 1.34 m/s, 105° | 15 W/m² | - |
| 1778023811 | 24.44° C | 64% | 1017.6 hPa | 0 mm | 1.79 m/s, 10° | 19 W/m² | - |
| 1778023509 | 24.44° C | 64% | 1017.5 hPa | 0 mm | 0.45 m/s, 129° | 22 W/m² | - |
| 1778023206 | 25° C | 63% | 1017.6 hPa | 0 mm | 1.79 m/s, 90° | 25 W/m² | - |
| 1778022903 | 25° C | 58% | 1017.6 hPa | 0 mm | 2.24 m/s, 70° | 29 W/m² | - |
| 1778022601 | 25° C | 59% | 1017.4 hPa | 0 mm | 1.34 m/s, 101° | 33 W/m² | - |
| 1778022298 | 25° C | 62% | 1017.5 hPa | 0 mm | 1.34 m/s, 84° | 36 W/m² | - |
| 1778021994 | 25° C | 62% | 1017.7 hPa | 0 mm | 0.89 m/s, 95° | 39 W/m² | - |
| 1778021692 | 25° C | 64% | 1017.6 hPa | 0 mm | 2.24 m/s, 75° | 43 W/m² | - |
| 1778021388 | 25° C | 66% | 1017.7 hPa | 0 mm | 2.68 m/s, 97° | 45 W/m² | - |
* Rain latest hour (hover to see other rain measurements)
** Current wind speed in m/s (hover to see current wind gust speed)